Decoded Metar for KDEQ (DE QUEEN in AR, USA) (IATA:DEQ) | Meteo·Mobile Aviation Weather
aviador You're here:

KDEQ Decoded Metar

DE QUEEN in AR, USA
Report Time2019-02-17 04:53:00
UTC Time2019-02-17 05:29:39
Flight Rules ifr IFR
Wind090° at 08 kt
W.Decomp.*RWY 08: 8.0 kt HW 0.8 kt RCW
W.Rank090° ranks 2
Current wind is above 090° avg. (5.4)
Visibility9656 m
Phenomena:Mist
Clouds:Overcast 005 Hf
Ceiling500 ft
Temp04°C (ISA -10)
Dew Point04°C (100% RH)
AAT-0.2°C
QNH1006 hPa
Density Alt-548 ft
Elevation348 ft
Report Wrong Elevation
Raw Report
KDEQ 170453Z AUTO 09008KT 6SM BR OVC005 04/04 A2972 RMK AO2 SLP064
T00390039 $=

Extra information for KDEQ:More info

Metar Taf Metar & Taf Last 4 Metars F.Rules Stats Wind Profile Meteogram Temp Stats Airport Information Weather charts Add Link Nearby VenuesMetar ALERT Operation Metar Decoded Social comments

AIRNAV info for KDEQ